createdAt,value
2018-09-29T00:00:43.537Z,102838.66
2018-09-29T00:03:13.482Z,102840.16
2018-09-29T00:05:43.767Z,102834.84
2018-09-29T00:08:13.712Z,102834.25
2018-09-29T00:10:43.684Z,102841.13
2018-09-29T00:13:13.808Z,102838.39
2018-09-29T00:15:43.970Z,102834.58
2018-09-29T00:18:14.050Z,102834.67
2018-09-29T00:20:44.280Z,102842.56
2018-09-29T00:23:14.288Z,102837.84
2018-09-29T00:25:44.213Z,102839.45
2018-09-29T00:28:14.057Z,102840.73
2018-09-29T00:30:43.940Z,102841.18
2018-09-29T00:33:13.996Z,102838.16
2018-09-29T00:35:43.728Z,102839.77
2018-09-29T00:38:13.601Z,102838.75
2018-09-29T00:40:43.773Z,102837.47
2018-09-29T00:43:13.637Z,102833.94
2018-09-29T00:45:43.726Z,102835.22
2018-09-29T00:48:13.798Z,102834.97
2018-09-29T00:50:43.940Z,102832.17
2018-09-29T00:53:13.872Z,102825.16
2018-09-29T00:55:43.849Z,102833.28
2018-09-29T00:58:14.095Z,102828.05
2018-09-29T01:00:44.172Z,102831.16
2018-09-29T01:03:14.233Z,102825.09
2018-09-29T01:05:44.564Z,102829.91
2018-09-29T01:08:14.691Z,102831.37
2018-09-29T01:10:45.132Z,102824.58
2018-09-29T01:13:15.404Z,102829.59
2018-09-29T01:15:45.810Z,102824.42
2018-09-29T01:18:16.202Z,102821.77
2018-09-29T01:20:46.444Z,102815.48
2018-09-29T01:23:16.612Z,102814.39
2018-09-29T01:25:46.660Z,102812.31
2018-09-29T01:28:16.682Z,102810.25
2018-09-29T01:30:46.774Z,102815.48
2018-09-29T01:33:16.893Z,102805.69
2018-09-29T01:35:47.039Z,102812.34
2018-09-29T01:38:17.278Z,102810.84
2018-09-29T01:40:47.265Z,102811.29
2018-09-29T01:43:17.123Z,102810.47
2018-09-29T01:45:47.123Z,102808.05
2018-09-29T01:48:17.374Z,102808.78
2018-09-29T01:50:47.944Z,102802.50
2018-09-29T01:53:18.056Z,102802.27
2018-09-29T01:55:47.952Z,102809.83
2018-09-29T01:58:17.843Z,102811.66
2018-09-29T02:00:47.757Z,102818.08
2018-09-29T02:03:18.241Z,102813.22
2018-09-29T02:05:48.104Z,102817.56
2018-09-29T02:08:18.261Z,102823.08
2018-09-29T02:10:48.449Z,102816.52
2018-09-29T02:13:18.414Z,102814.09
2018-09-29T02:15:48.264Z,102816.06
2018-09-29T02:18:18.646Z,102813.64
2018-09-29T02:20:48.885Z,102817.97
2018-09-29T02:23:18.842Z,102815.57
2018-09-29T02:25:48.689Z,102817.22
2018-09-29T02:28:18.560Z,102811.24
2018-09-29T02:30:48.593Z,102822.50
2018-09-29T02:33:19.117Z,102818.45
2018-09-29T02:35:49.035Z,102820.06
2018-09-29T02:38:19.167Z,102809.91
2018-09-29T02:40:49.286Z,102808.43
2018-09-29T02:43:20.139Z,102811.21
2018-09-29T02:45:50.207Z,102816.97
2018-09-29T02:48:20.112Z,102816.03
2018-09-29T02:50:50.270Z,102813.23
2018-09-29T02:53:20.274Z,102804.86
2018-09-29T02:55:50.529Z,102811.33
2018-09-29T02:58:20.651Z,102805.55
2018-09-29T03:00:50.745Z,102801.78
2018-09-29T03:03:20.672Z,102806.81
2018-09-29T03:05:50.653Z,102809.00
2018-09-29T03:08:20.535Z,102812.32
2018-09-29T03:10:50.503Z,102807.10
2018-09-29T03:13:20.525Z,102812.22
2018-09-29T03:15:50.524Z,102815.70
2018-09-29T03:18:20.336Z,102817.75
2018-09-29T03:20:50.295Z,102810.83
2018-09-29T03:23:20.345Z,102815.09
2018-09-29T03:25:50.162Z,102809.56
2018-09-29T03:28:20.157Z,102811.44
2018-09-29T03:30:50.218Z,102807.67
2018-09-29T03:33:20.266Z,102812.09
2018-09-29T03:35:50.354Z,102810.70
2018-09-29T03:38:20.454Z,102813.05
2018-09-29T03:40:50.361Z,102808.88
2018-09-29T03:43:20.281Z,102817.70
2018-09-29T03:45:50.270Z,102816.60
2018-09-29T03:48:20.594Z,102812.70
2018-09-29T03:50:50.571Z,102812.52
2018-09-29T03:53:20.504Z,102809.20
2018-09-29T03:55:50.419Z,102810.16
2018-09-29T03:58:20.398Z,102806.42
2018-09-29T04:00:50.322Z,102803.53
2018-09-29T04:03:20.641Z,102804.56
2018-09-29T04:05:50.944Z,102803.64
2018-09-29T04:08:20.974Z,102805.28
2018-09-29T04:10:50.795Z,102798.50
2018-09-29T04:13:20.605Z,102803.41
2018-09-29T04:15:50.463Z,102803.22
2018-09-29T04:18:20.438Z,102802.37
2018-09-29T04:20:50.222Z,102805.81
2018-09-29T04:23:20.241Z,102807.98
2018-09-29T04:25:50.288Z,102807.33
2018-09-29T04:28:20.399Z,102806.69
2018-09-29T04:30:50.416Z,102812.63
2018-09-29T04:33:20.441Z,102815.80
2018-09-29T04:35:50.581Z,102812.95
2018-09-29T04:38:20.792Z,102810.95
2018-09-29T04:40:50.853Z,102816.14
2018-09-29T04:43:20.860Z,102815.39
2018-09-29T04:45:51.415Z,102817.89
2018-09-29T04:48:21.785Z,102824.33
2018-09-29T04:50:51.821Z,102827.96
2018-09-29T04:53:21.904Z,102835.38
2018-09-29T04:55:51.735Z,102844.55
2018-09-29T04:58:22.089Z,102843.37
2018-09-29T05:00:52.069Z,102842.98
2018-09-29T05:03:22.118Z,102841.07
2018-09-29T05:05:52.429Z,102842.70
2018-09-29T05:08:22.400Z,102844.95
2018-09-29T05:10:52.434Z,102843.00
2018-09-29T05:13:22.701Z,102842.41
2018-09-29T05:15:53.118Z,102839.95
2018-09-29T05:18:22.973Z,102838.82
2018-09-29T05:20:53.218Z,102838.20
2018-09-29T05:23:23.289Z,102834.88
2018-09-29T05:25:53.101Z,102842.91
2018-09-29T05:28:23.204Z,102839.34
2018-09-29T05:30:53.174Z,102832.52
2018-09-29T05:33:23.002Z,102839.75
2018-09-29T05:35:52.910Z,102839.55
2018-09-29T05:38:22.802Z,102840.59
2018-09-29T05:40:52.644Z,102845.27
2018-09-29T05:43:22.704Z,102837.63
2018-09-29T05:45:52.625Z,102837.39
2018-09-29T05:48:22.795Z,102835.63
2018-09-29T05:50:52.592Z,102837.55
2018-09-29T05:53:22.430Z,102830.70
2018-09-29T05:55:52.346Z,102836.58
2018-09-29T05:58:22.674Z,102845.13
2018-09-29T06:00:52.540Z,102841.39
2018-09-29T06:03:22.599Z,102833.76
2018-09-29T06:05:52.563Z,102843.05
2018-09-29T06:08:22.658Z,102841.30
2018-09-29T06:10:52.640Z,102838.98
2018-09-29T06:13:22.939Z,102841.97
2018-09-29T06:15:53.264Z,102842.05
2018-09-29T06:18:23.168Z,102848.84
2018-09-29T06:20:53.174Z,102850.14
2018-09-29T06:23:23.124Z,102847.56
2018-09-29T06:25:53.048Z,102850.28
2018-09-29T06:28:22.867Z,102849.89
2018-09-29T06:30:52.849Z,102846.98
2018-09-29T06:33:22.795Z,102846.05
2018-09-29T06:35:52.753Z,102857.22
2018-09-29T06:38:23.900Z,102863.59
2018-09-29T06:40:53.937Z,102861.20
2018-09-29T06:43:23.747Z,102861.28
2018-09-29T06:45:53.701Z,102852.92
2018-09-29T06:48:24.020Z,102855.08
2018-09-29T06:50:54.050Z,102858.44
2018-09-29T06:53:23.960Z,102858.95
2018-09-29T06:55:53.988Z,102853.34
2018-09-29T06:58:23.925Z,102849.09
2018-09-29T07:00:53.818Z,102844.28
2018-09-29T07:03:23.796Z,102843.19
2018-09-29T07:05:54.157Z,102845.45
2018-09-29T07:08:24.156Z,102843.44
2018-09-29T07:10:54.267Z,102842.48
2018-09-29T07:13:24.296Z,102846.09
2018-09-29T07:15:54.337Z,102850.49
2018-09-29T07:18:24.370Z,102847.34
2018-09-29T07:20:54.558Z,102849.58
2018-09-29T07:23:24.562Z,102845.09
2018-09-29T07:25:54.529Z,102842.18
2018-09-29T07:28:24.475Z,102844.34
2018-09-29T07:30:54.782Z,102844.82
2018-09-29T07:33:24.701Z,102845.10
2018-09-29T07:35:54.584Z,102846.74
2018-09-29T07:38:24.477Z,102848.59
2018-09-29T07:40:54.344Z,102848.19
2018-09-29T07:43:24.318Z,102847.03
2018-09-29T07:45:54.359Z,102841.73
2018-09-29T07:48:24.399Z,102837.92
2018-09-29T07:50:54.621Z,102840.45
2018-09-29T07:53:24.988Z,102839.37
2018-09-29T07:55:55.065Z,102837.86
2018-09-29T07:58:24.974Z,102843.41
2018-09-29T08:00:54.786Z,102839.73
2018-09-29T08:03:24.821Z,102839.07
2018-09-29T08:05:54.944Z,102839.84
2018-09-29T08:08:25.095Z,102843.78
2018-09-29T08:10:55.321Z,102842.48
2018-09-29T08:13:25.250Z,102838.44
2018-09-29T08:15:55.224Z,102844.69
2018-09-29T08:18:25.212Z,102846.53
2018-09-29T08:20:55.089Z,102842.45
2018-09-29T08:23:25.245Z,102844.39
2018-09-29T08:25:55.321Z,102849.72
2018-09-29T08:28:25.296Z,102847.45
2018-09-29T08:30:55.371Z,102847.02
2018-09-29T08:33:25.555Z,102850.59
2018-09-29T08:35:55.478Z,102853.28
2018-09-29T08:38:25.348Z,102850.05
2018-09-29T08:40:55.544Z,102857.28
2018-09-29T08:43:25.415Z,102855.58
2018-09-29T08:45:55.425Z,102852.03
2018-09-29T08:48:25.216Z,102836.13
2018-09-29T08:50:55.318Z,102830.60
2018-09-29T08:53:25.305Z,102835.37
2018-09-29T08:55:55.177Z,102828.41
2018-09-29T08:58:25.088Z,102818.79
2018-09-29T09:00:55.384Z,102818.59
2018-09-29T09:03:25.563Z,102816.59
2018-09-29T09:05:55.477Z,102814.28
2018-09-29T09:08:25.396Z,102813.03
2018-09-29T09:10:55.451Z,102814.13
2018-09-29T09:13:25.519Z,102814.07
2018-09-29T09:15:55.328Z,102808.27
2018-09-29T09:18:25.390Z,102811.59
2018-09-29T09:20:55.274Z,102808.19
2018-09-29T09:23:25.330Z,102795.30
2018-09-29T09:25:55.788Z,102804.61
2018-09-29T09:28:26.104Z,102793.53
2018-09-29T09:30:56.166Z,102798.69
2018-09-29T09:33:26.272Z,102791.27
2018-09-29T09:35:56.240Z,102791.88
2018-09-29T09:38:26.209Z,102783.13
2018-09-29T09:40:56.240Z,102775.87
2018-09-29T09:43:26.423Z,102779.55
2018-09-29T09:45:56.374Z,102771.59
2018-09-29T09:48:26.360Z,102772.85
2018-09-29T09:50:56.286Z,102768.56
2018-09-29T09:53:26.109Z,102772.18
2018-09-29T09:55:56.056Z,102767.27
2018-09-29T09:58:25.958Z,102762.95
2018-09-29T10:01:01.205Z,102761.73
2018-09-29T10:03:32.982Z,102756.81
2018-09-29T10:06:02.931Z,102758.30
2018-09-29T10:08:32.821Z,102755.44
2018-09-29T10:11:02.673Z,102742.45
2018-09-29T10:13:32.931Z,102744.38
2018-09-29T10:16:03.007Z,102735.53
2018-09-29T10:18:32.968Z,102728.08
2018-09-29T10:21:03.601Z,102729.22
2018-09-29T10:23:33.694Z,102719.78
2018-09-29T10:26:03.612Z,102723.50
2018-09-29T10:28:33.912Z,102711.74
2018-09-29T10:31:03.930Z,102712.52
2018-09-29T10:33:33.791Z,102711.25
2018-09-29T10:36:03.795Z,102706.15
2018-09-29T10:38:33.636Z,102706.27
2018-09-29T10:41:03.403Z,102697.93
2018-09-29T10:43:33.287Z,102697.12
2018-09-29T10:46:03.509Z,102696.48
2018-09-29T10:48:33.513Z,102695.17
2018-09-29T10:51:03.312Z,102690.67
2018-09-29T10:53:33.106Z,102683.89
2018-09-29T10:56:02.980Z,102684.77
2018-09-29T10:58:32.889Z,102687.95
2018-09-29T11:01:02.907Z,102678.48
2018-09-29T11:03:33.245Z,102684.71
2018-09-29T11:06:03.429Z,102682.38
2018-09-29T11:08:33.510Z,102674.64
2018-09-29T11:11:03.537Z,102673.56
2018-09-29T11:13:33.501Z,102673.33
2018-09-29T11:16:03.606Z,102665.06
2018-09-29T11:18:33.760Z,102657.05
2018-09-29T11:21:03.757Z,102650.07
2018-09-29T11:23:33.789Z,102652.76
2018-09-29T11:26:03.894Z,102647.14
2018-09-29T11:28:33.852Z,102642.30
2018-09-29T11:31:03.844Z,102631.31
2018-09-29T11:33:34.166Z,102632.11
2018-09-29T11:36:04.476Z,102626.53
2018-09-29T11:38:34.278Z,102623.30
2018-09-29T11:41:04.388Z,102617.14
2018-09-29T11:43:34.624Z,102616.87
2018-09-29T11:46:04.685Z,102603.74
2018-09-29T11:48:34.463Z,102593.26
2018-09-29T11:51:04.449Z,102594.62
2018-09-29T11:53:34.375Z,102591.40
2018-09-29T11:56:04.269Z,102584.66
2018-09-29T11:58:34.247Z,102583.59
2018-09-29T12:01:04.135Z,102581.73
2018-09-29T12:03:34.279Z,102572.92
2018-09-29T12:06:04.398Z,102571.31
2018-09-29T12:08:34.378Z,102572.35
2018-09-29T12:11:04.228Z,102564.84
2018-09-29T12:13:34.173Z,102560.32
2018-09-29T12:16:04.377Z,102557.89
2018-09-29T12:18:34.500Z,102552.27
2018-09-29T12:21:04.435Z,102549.57
2018-09-29T12:23:34.484Z,102540.70
2018-09-29T12:26:04.344Z,102528.88
2018-09-29T12:28:34.314Z,102535.61
2018-09-29T12:31:04.302Z,102528.37
2018-09-29T12:33:34.302Z,102528.09
2018-09-29T12:36:04.526Z,102522.73
2018-09-29T12:38:34.607Z,102522.68
2018-09-29T12:41:04.479Z,102514.30
2018-09-29T12:43:34.305Z,102513.41
2018-09-29T12:46:04.338Z,102508.27
2018-09-29T12:48:34.627Z,102507.78
2018-09-29T12:51:04.536Z,102501.27
2018-09-29T12:53:34.938Z,102499.73
2018-09-29T12:56:04.988Z,102499.44
2018-09-29T12:58:35.020Z,102495.28
2018-09-29T13:01:05.024Z,102494.02
2018-09-29T13:03:35.087Z,102490.72
2018-09-29T13:06:05.042Z,102487.93
2018-09-29T13:08:35.049Z,102476.81
2018-09-29T13:11:05.160Z,102475.61
2018-09-29T13:13:35.259Z,102472.17
2018-09-29T13:16:05.144Z,102469.11
2018-09-29T13:18:35.029Z,102465.09
2018-09-29T13:21:04.901Z,102457.05
2018-09-29T13:23:35.086Z,102446.28
2018-09-29T13:26:05.501Z,102442.02
2018-09-29T13:28:35.446Z,102441.38
2018-09-29T13:31:05.499Z,102442.53
2018-09-29T13:33:35.318Z,102439.38
2018-09-29T13:36:05.388Z,102435.00
2018-09-29T13:38:35.602Z,102430.22
2018-09-29T13:41:05.382Z,102429.78
2018-09-29T13:43:35.655Z,102417.42
2018-09-29T13:46:05.841Z,102414.95
2018-09-29T13:48:35.665Z,102407.52
2018-09-29T13:51:05.621Z,102403.63
2018-09-29T13:53:36.180Z,102399.36
2018-09-29T13:56:06.368Z,102395.45
2018-09-29T13:58:36.315Z,102401.02
2018-09-29T14:01:06.449Z,102387.77
2018-09-29T14:03:36.555Z,102379.20
2018-09-29T14:06:06.431Z,102377.03
2018-09-29T14:08:36.445Z,102373.44
2018-09-29T14:11:06.320Z,102366.98
2018-09-29T14:13:36.331Z,102370.34
2018-09-29T14:16:06.249Z,102359.13
2018-09-29T14:18:36.196Z,102361.80
2018-09-29T14:21:06.645Z,102357.19
2018-09-29T14:23:36.533Z,102349.18
2018-09-29T14:26:06.467Z,102348.63
2018-09-29T14:28:36.417Z,102340.19
2018-09-29T14:31:06.461Z,102333.95
2018-09-29T14:33:36.265Z,102327.91
2018-09-29T14:36:06.265Z,102330.70
2018-09-29T14:38:36.509Z,102326.91
2018-09-29T14:41:06.797Z,102318.13
2018-09-29T14:43:36.798Z,102314.09
2018-09-29T14:46:07.247Z,102316.11
2018-09-29T14:48:37.525Z,102310.02
2018-09-29T14:51:07.957Z,102305.53
2018-09-29T14:53:37.723Z,102312.31
2018-09-29T14:56:07.717Z,102307.83
2018-09-29T14:58:37.693Z,102300.45
2018-09-29T15:01:07.962Z,102293.83
2018-09-29T15:03:38.169Z,102291.91
2018-09-29T15:06:08.205Z,102297.97
2018-09-29T15:08:38.705Z,102297.23
2018-09-29T15:11:09.394Z,102285.14
2018-09-29T15:13:39.713Z,102288.15
2018-09-29T15:16:09.556Z,102282.56
2018-09-29T15:18:39.857Z,102282.50
2018-09-29T15:21:09.925Z,102277.61
2018-09-29T15:23:39.869Z,102274.69
2018-09-29T15:26:09.888Z,102266.47
2018-09-29T15:28:39.784Z,102266.51
2018-09-29T15:31:10.188Z,102266.27
2018-09-29T15:33:40.057Z,102266.05
2018-09-29T15:36:10.351Z,102259.91
2018-09-29T15:38:40.415Z,102267.22
2018-09-29T15:41:10.693Z,102259.02
2018-09-29T15:43:41.037Z,102259.87
2018-09-29T15:46:10.911Z,102258.45
2018-09-29T15:48:40.841Z,102251.75
2018-09-29T15:51:10.816Z,102246.72
2018-09-29T15:53:40.736Z,102247.31
2018-09-29T15:56:10.743Z,102242.98
2018-09-29T15:58:40.729Z,102243.09
2018-09-29T16:01:10.729Z,102235.81
2018-09-29T16:03:40.669Z,102233.41
2018-09-29T16:06:11.076Z,102233.16
2018-09-29T16:08:41.152Z,102234.83
2018-09-29T16:11:11.270Z,102235.17
2018-09-29T16:13:41.105Z,102229.98
2018-09-29T16:16:12.132Z,102225.98
2018-09-29T16:18:42.205Z,102222.00
2018-09-29T16:21:12.436Z,102216.59
2018-09-29T16:23:42.429Z,102211.83
2018-09-29T16:26:19.265Z,102209.17
2018-09-29T16:28:50.172Z,102201.58
2018-09-29T16:31:20.072Z,102204.05
2018-09-29T16:33:50.127Z,102197.06
2018-09-29T16:36:19.997Z,102195.11
2018-09-29T16:38:50.278Z,102196.28
2018-09-29T16:41:20.280Z,102199.84
2018-09-29T16:43:50.191Z,102197.44
2018-09-29T16:46:20.633Z,102204.15
2018-09-29T16:48:50.436Z,102206.05
2018-09-29T16:51:20.358Z,102196.74
2018-09-29T16:53:50.284Z,102193.00
2018-09-29T16:56:20.255Z,102190.03
2018-09-29T16:58:50.159Z,102189.30
2018-09-29T17:01:20.592Z,102192.75
2018-09-29T17:03:50.643Z,102179.16
2018-09-29T17:06:20.629Z,102188.02
2018-09-29T17:08:50.697Z,102184.83
2018-09-29T17:11:20.795Z,102185.34
2018-09-29T17:13:50.865Z,102184.58
2018-09-29T17:16:20.706Z,102183.02
2018-09-29T17:18:50.580Z,102191.59
2018-09-29T17:21:20.507Z,102188.13
2018-09-29T17:23:50.476Z,102188.66
2018-09-29T17:26:20.521Z,102191.88
2018-09-29T17:28:50.696Z,102194.02
2018-09-29T17:31:21.050Z,102198.61
2018-09-29T17:33:51.098Z,102193.48
2018-09-29T17:36:21.025Z,102194.31
2018-09-29T17:38:51.163Z,102196.20
2018-09-29T17:41:21.061Z,102194.85
2018-09-29T17:43:51.296Z,102192.73
2018-09-29T17:46:21.289Z,102193.27
2018-09-29T17:48:51.548Z,102189.24
2018-09-29T17:51:21.654Z,102181.19
2018-09-29T17:53:51.593Z,102176.11
2018-09-29T17:56:21.636Z,102172.37
2018-09-29T17:58:51.586Z,102170.77
2018-09-29T18:01:21.512Z,102172.11
2018-09-29T18:03:51.335Z,102161.66
2018-09-29T18:06:21.395Z,102168.36
2018-09-29T18:08:51.353Z,102163.53
2018-09-29T18:11:21.484Z,102160.59
2018-09-29T18:13:51.990Z,102162.47
2018-09-29T18:16:22.423Z,102162.22
2018-09-29T18:18:52.491Z,102156.30
2018-09-29T18:21:22.596Z,102157.37
2018-09-29T18:23:52.672Z,102154.68
2018-09-29T18:26:22.589Z,102161.09
2018-09-29T18:28:52.442Z,102157.08
2018-09-29T18:31:22.615Z,102169.08
2018-09-29T18:33:52.725Z,102167.44
2018-09-29T18:36:22.724Z,102169.25
2018-09-29T18:38:52.759Z,102170.30
2018-09-29T18:41:22.751Z,102164.15
2018-09-29T18:43:52.729Z,102165.17
2018-09-29T18:46:22.847Z,102162.55
2018-09-29T18:48:52.996Z,102159.57
2018-09-29T18:51:23.176Z,102158.19
2018-09-29T18:53:53.474Z,102161.66
2018-09-29T18:56:23.517Z,102160.03
2018-09-29T18:58:53.780Z,102161.37
2018-09-29T19:01:23.917Z,102164.56
2018-09-29T19:03:54.198Z,102166.41
2018-09-29T19:06:24.053Z,102169.05
2018-09-29T19:08:53.899Z,102173.31
2018-09-29T19:11:23.933Z,102171.90
2018-09-29T19:13:53.819Z,102173.17
2018-09-29T19:16:23.872Z,102169.88
2018-09-29T19:18:53.812Z,102169.30
2018-09-29T19:21:23.962Z,102171.22
2018-09-29T19:23:54.035Z,102170.44
2018-09-29T19:26:23.891Z,102166.44
2018-09-29T19:28:53.947Z,102164.28
2018-09-29T19:31:23.916Z,102160.77
2018-09-29T19:33:53.884Z,102172.23
2018-09-29T19:36:24.056Z,102171.92
2018-09-29T19:38:54.109Z,102169.26
2018-09-29T19:41:23.891Z,102163.88
2018-09-29T19:43:53.824Z,102158.80
2018-09-29T19:46:23.881Z,102161.22
2018-09-29T19:48:53.855Z,102151.05
2018-09-29T19:51:24.193Z,102151.58
2018-09-29T19:53:54.188Z,102151.28
2018-09-29T19:56:24.556Z,102142.72
2018-09-29T19:58:54.588Z,102136.05
2018-09-29T20:01:24.551Z,102145.13
2018-09-29T20:03:54.495Z,102140.31
2018-09-29T20:06:24.677Z,102135.45
2018-09-29T20:08:54.790Z,102137.56
2018-09-29T20:11:24.614Z,102136.20
2018-09-29T20:13:54.556Z,102132.45
2018-09-29T20:16:24.537Z,102131.13
2018-09-29T20:18:54.691Z,102135.93
2018-09-29T20:21:24.685Z,102136.41
2018-09-29T20:23:54.851Z,102130.81
2018-09-29T20:26:25.644Z,102136.67
2018-09-29T20:28:55.728Z,102131.59
2018-09-29T20:31:25.662Z,102130.74
2018-09-29T20:33:55.788Z,102122.58
2018-09-29T20:36:26.042Z,102127.65
2018-09-29T20:38:55.881Z,102123.35
2018-09-29T20:41:26.169Z,102112.34
2018-09-29T20:43:56.197Z,102110.44
2018-09-29T20:46:26.261Z,102108.28
2018-09-29T20:48:56.136Z,102108.55
2018-09-29T20:51:26.175Z,102118.14
2018-09-29T20:53:56.495Z,102109.62
2018-09-29T20:56:26.677Z,102107.99
2018-09-29T20:58:56.654Z,102102.95
2018-09-29T21:01:27.071Z,102104.97
2018-09-29T21:03:57.164Z,102109.13
2018-09-29T21:06:27.293Z,102112.05
2018-09-29T21:08:57.996Z,102106.20
2018-09-29T21:11:28.362Z,102095.70
2018-09-29T21:13:58.260Z,102092.17
2018-09-29T21:16:28.153Z,102081.52
2018-09-29T21:18:58.193Z,102080.73
2018-09-29T21:21:28.470Z,102078.02
2018-09-29T21:23:58.764Z,102075.11
2018-09-29T21:26:28.724Z,102070.07
2018-09-29T21:28:58.962Z,102062.59
2018-09-29T21:31:29.053Z,102065.47
2018-09-29T21:33:58.903Z,102064.19
2018-09-29T21:36:29.002Z,102060.14
2018-09-29T21:38:59.112Z,102051.28
2018-09-29T21:41:29.201Z,102051.63
2018-09-29T21:43:59.213Z,102055.27
2018-09-29T21:46:29.261Z,102042.97
2018-09-29T21:48:59.517Z,102036.82
2018-09-29T21:51:29.785Z,102032.62
2018-09-29T21:54:00.509Z,102028.06
2018-09-29T21:56:30.674Z,102030.94
2018-09-29T21:59:00.866Z,102028.51
2018-09-29T22:01:32.289Z,102021.35
2018-09-29T22:04:03.547Z,102021.50
2018-09-29T22:06:33.633Z,102025.13
2018-09-29T22:09:04.261Z,102017.11
2018-09-29T22:11:34.432Z,102019.81
2018-09-29T22:14:04.393Z,102015.52
2018-09-29T22:16:34.604Z,102007.27
2018-09-29T22:19:04.608Z,102005.17
2018-09-29T22:21:34.566Z,101995.04
2018-09-29T22:24:04.569Z,101991.45
2018-09-29T22:26:34.428Z,101996.47
2018-09-29T22:29:04.703Z,101999.36
2018-09-29T22:31:35.202Z,101992.93
2018-09-29T22:34:05.252Z,101988.67
2018-09-29T22:36:35.127Z,101992.93
2018-09-29T22:39:06.912Z,101987.41
2018-09-29T22:41:37.333Z,101988.47
2018-09-29T22:44:07.624Z,101986.88
2018-09-29T22:46:37.608Z,101984.48
2018-09-29T22:49:08.239Z,101986.65
2018-09-29T22:51:38.249Z,101985.73
2018-09-29T22:54:08.501Z,101984.95
2018-09-29T22:56:38.873Z,101978.88
2018-09-29T22:59:09.086Z,101983.69
2018-09-29T23:01:39.264Z,101979.75
2018-09-29T23:04:09.611Z,101981.28
2018-09-29T23:06:39.765Z,101984.25
2018-09-29T23:09:11.972Z,101985.00
2018-09-29T23:11:42.402Z,101983.11
2018-09-29T23:14:12.680Z,101989.94
2018-09-29T23:16:43.147Z,101990.23
2018-09-29T23:19:13.167Z,101989.49
2018-09-29T23:21:42.996Z,101988.20
2018-09-29T23:24:12.927Z,101988.97
2018-09-29T23:26:43.364Z,101993.16
2018-09-29T23:29:13.414Z,101998.34
2018-09-29T23:31:43.602Z,101994.09
2018-09-29T23:34:13.873Z,101989.66
2018-09-29T23:36:44.182Z,101982.46
2018-09-29T23:39:14.206Z,101972.38
2018-09-29T23:41:44.096Z,101968.39
2018-09-29T23:44:14.205Z,101971.87
2018-09-29T23:46:44.140Z,101969.53
2018-09-29T23:49:14.128Z,101967.38
2018-09-29T23:51:44.340Z,101967.19
2018-09-29T23:54:15.080Z,101964.48
2018-09-29T23:56:44.949Z,101965.10
2018-09-29T23:59:15.167Z,101967.08
